Time;durP1;ratioP1;P1;durP2;ratioP2;P2;SDS_P1;SDS_P2;PMS_P1;PMS_P2;Temp;Humidity;BMP_temperature;BMP_pressure;BME280_temperature;BME280_humidity;BME280_pressure;Samples;Min_cycle;Max_cycle;Signal;HPM_P1;HPM_P2
2022/12/23 00:01:05;;;;;;;123.90;35.75;;;7.00;99.90;;;;;;5075381;28;20039;-66
2022/12/23 00:03:31;;;;;;;123.22;32.88;;;7.00;99.90;;;;;;5092129;28;20054;-66
2022/12/23 00:05:57;;;;;;;139.27;36.10;;;6.90;99.90;;;;;;5089250;28;20028;-66
2022/12/23 00:08:24;;;;;;;139.80;34.15;;;7.00;99.90;;;;;;5084269;28;20130;-66
2022/12/23 00:10:50;;;;;;;128.23;34.80;;;7.00;99.90;;;;;;5074169;28;20040;-67
2022/12/23 00:16:02;;;;;;;244.45;46.13;;;7.00;99.90;;;;;;5091077;28;20407;-66
2022/12/23 00:18:27;;;;;;;165.82;39.05;;;6.90;99.90;;;;;;5084087;28;20380;-66
2022/12/23 00:20:58;;;;;;;242.60;44.38;;;7.00;99.90;;;;;;5080277;28;20044;-67
2022/12/23 00:23:23;;;;;;;118.32;34.05;;;6.90;99.90;;;;;;5074525;28;20376;-66
2022/12/23 00:25:49;;;;;;;132.93;35.25;;;6.90;99.90;;;;;;5083313;28;20032;-66
2022/12/23 00:28:23;;;;;;;136.20;35.33;;;7.00;99.90;;;;;;5080110;28;20076;-67
2022/12/23 00:30:53;;;;;;;158.10;36.30;;;6.90;99.90;;;;;;5091058;28;20038;-65
2022/12/23 00:33:22;;;;;;;122.00;35.08;;;6.90;99.90;;;;;;5077598;28;20362;-65
2022/12/23 00:35:48;;;;;;;110.20;33.67;;;6.90;99.90;;;;;;5081937;28;20044;-66
2022/12/23 00:38:15;;;;;;;113.85;33.53;;;6.90;99.90;;;;;;5082891;28;20024;-64
2022/12/23 00:43:25;;;;;;;139.23;34.28;;;7.00;99.90;;;;;;5084890;28;20051;-65
2022/12/23 00:45:50;;;;;;;130.75;34.00;;;6.90;99.90;;;;;;5087038;28;20040;-65
2022/12/23 00:51:00;;;;;;;153.13;35.65;;;7.00;99.90;;;;;;5081144;28;20040;-64
2022/12/23 00:53:26;;;;;;;147.18;35.63;;;6.90;99.90;;;;;;5086070;28;20040;-64
2022/12/23 00:55:51;;;;;;;137.25;36.13;;;7.00;99.90;;;;;;5076724;28;20033;-65
2022/12/23 00:58:19;;;;;;;120.07;34.72;;;7.00;99.90;;;;;;5071452;28;20587;-65
2022/12/23 01:06:15;;;;;;;123.43;33.72;;;6.90;99.90;;;;;;5087265;28;20036;-64
2022/12/23 01:08:40;;;;;;;112.07;32.83;;;7.00;99.90;;;;;;5086516;28;20063;-65
2022/12/23 01:11:09;;;;;;;121.10;34.13;;;7.00;99.90;;;;;;5081801;28;20542;-65
2022/12/23 01:13:35;;;;;;;128.52;34.45;;;7.00;99.90;;;;;;5072318;28;20076;-65
2022/12/23 01:16:04;;;;;;;132.50;34.97;;;7.00;99.90;;;;;;5082913;28;20048;-64
2022/12/23 01:18:30;;;;;;;125.00;35.92;;;6.90;99.90;;;;;;5081456;28;20041;-65
2022/12/23 01:21:01;;;;;;;126.88;34.65;;;7.00;99.90;;;;;;5079781;28;20487;-65
2022/12/23 01:23:27;;;;;;;134.02;36.60;;;7.00;99.90;;;;;;5085483;28;20649;-65
2022/12/23 01:26:01;;;;;;;126.60;34.70;;;7.00;99.90;;;;;;5090780;28;20122;-65
2022/12/23 01:28:28;;;;;;;143.18;37.35;;;6.90;99.90;;;;;;5071801;28;20090;-66
2022/12/23 01:30:54;;;;;;;130.27;36.90;;;7.00;99.90;;;;;;5070917;28;20047;-66
2022/12/23 01:33:20;;;;;;;121.15;35.40;;;7.00;99.90;;;;;;5085539;28;20040;-65
2022/12/23 01:35:46;;;;;;;132.55;37.10;;;7.00;99.90;;;;;;5089342;28;20036;-66
2022/12/23 01:38:11;;;;;;;133.13;36.50;;;6.90;99.90;;;;;;5060542;28;20078;-66
2022/12/23 01:40:40;;;;;;;128.05;33.20;;;7.00;99.90;;;;;;5068932;28;20116;-66
2022/12/23 01:43:05;;;;;;;125.07;34.00;;;6.90;99.90;;;;;;5082321;28;20058;-67
2022/12/23 01:45:32;;;;;;;192.35;39.30;;;7.00;99.90;;;;;;5081710;28;20036;-65
2022/12/23 01:47:59;;;;;;;122.53;34.28;;;7.00;99.90;;;;;;5061449;28;20044;-68
2022/12/23 01:50:45;;;;;;;110.30;34.25;;;6.90;99.90;;;;;;5068926;28;20209;-67
2022/12/23 01:53:13;;;;;;;105.03;34.10;;;6.90;99.90;;;;;;5086750;28;20085;-66
2022/12/23 01:55:49;;;;;;;133.27;35.28;;;6.90;99.90;;;;;;5088245;28;20040;-66
2022/12/23 01:58:27;;;;;;;135.40;35.88;;;7.00;99.90;;;;;;5064076;28;20044;-66
2022/12/23 02:03:43;;;;;;;127.75;35.30;;;7.00;99.90;;;;;;5087080;28;20121;-66
2022/12/23 02:09:22;;;;;;;141.52;37.25;;;7.00;99.90;;;;;;5078162;28;20044;-66
2022/12/23 02:12:05;;;;;;;118.10;34.88;;;7.00;99.90;;;;;;5087129;28;20067;-67
2022/12/23 02:17:24;;;;;;;107.13;31.65;;;6.90;99.90;;;;;;5078025;28;20151;-66
2022/12/23 02:20:14;;;;;;;112.75;31.63;;;7.00;99.90;;;;;;5083805;28;20028;-67
2022/12/23 02:22:55;;;;;;;100.38;30.60;;;7.00;99.90;;;;;;5076991;28;20517;-65
2022/12/23 02:25:37;;;;;;;102.90;30.75;;;7.00;99.90;;;;;;5088626;28;20101;-66
2022/12/23 02:28:51;;;;;;;116.50;31.70;;;7.00;99.90;;;;;;5069499;28;20052;-66
2022/12/23 02:32:00;;;;;;;114.03;31.00;;;7.00;99.90;;;;;;5083139;28;20177;-65
2022/12/23 02:34:31;;;;;;;105.25;30.08;;;7.00;99.90;;;;;;5085629;28;20040;-66
2022/12/23 02:37:04;;;;;;;107.57;31.70;;;7.00;99.90;;;;;;5074066;28;20039;-66
2022/12/23 02:39:49;;;;;;;102.25;31.35;;;7.00;99.90;;;;;;5098308;28;20086;-66
2022/12/23 02:42:18;;;;;;;102.72;30.98;;;7.00;99.90;;;;;;5084534;28;20048;-67
2022/12/23 02:45:02;;;;;;;106.10;31.58;;;6.90;99.90;;;;;;5085914;28;21404;-65
2022/12/23 02:47:35;;;;;;;107.53;32.00;;;6.90;99.90;;;;;;5088765;28;20073;-65
2022/12/23 02:50:07;;;;;;;123.40;32.60;;;7.00;99.90;;;;;;5088151;28;20523;-67
2022/12/23 02:52:36;;;;;;;106.72;29.75;;;7.00;99.90;;;;;;5085080;28;20036;-67
2022/12/23 02:55:11;;;;;;;115.60;31.67;;;7.10;99.90;;;;;;5086747;28;20062;-65
2022/12/23 02:57:39;;;;;;;100.93;30.55;;;7.00;99.90;;;;;;5080200;28;20044;-67
2022/12/23 03:00:06;;;;;;;96.93;30.13;;;7.00;99.90;;;;;;5082342;28;20052;-65
2022/12/23 03:02:36;;;;;;;116.35;30.92;;;6.90;99.90;;;;;;5084304;28;20055;-66
2022/12/23 03:05:01;;;;;;;107.47;30.93;;;7.00;99.90;;;;;;5087143;28;20075;-65
2022/12/23 03:07:34;;;;;;;109.60;30.08;;;7.00;99.90;;;;;;5077123;28;20349;-66
2022/12/23 03:10:26;;;;;;;113.72;30.38;;;7.00;99.90;;;;;;5067203;28;20067;-65
2022/12/23 03:13:17;;;;;;;95.63;29.23;;;7.10;99.90;;;;;;5079523;28;20071;-65
2022/12/23 03:15:54;;;;;;;95.90;27.63;;;7.10;99.90;;;;;;5093265;28;20060;-65
2022/12/23 03:18:45;;;;;;;87.70;26.50;;;7.00;99.90;;;;;;5092364;28;20048;-68
2022/12/23 03:21:23;;;;;;;93.30;27.42;;;7.00;99.90;;;;;;5082155;28;20040;-65
2022/12/23 03:24:01;;;;;;;95.55;25.95;;;7.00;99.90;;;;;;5083400;28;20111;-67
2022/12/23 03:26:34;;;;;;;109.60;27.05;;;7.00;99.90;;;;;;5079775;28;20049;-66
2022/12/23 03:29:12;;;;;;;90.75;26.05;;;7.00;99.90;;;;;;5077667;28;20048;-66
2022/12/23 03:31:39;;;;;;;90.75;26.40;;;7.00;99.90;;;;;;5089199;28;20499;-66
2022/12/23 03:34:13;;;;;;;111.25;26.42;;;7.00;99.90;;;;;;5088804;28;20048;-66
2022/12/23 03:36:46;;;;;;;91.13;26.30;;;7.00;99.90;;;;;;5078355;28;20047;-66
2022/12/23 03:39:16;;;;;;;99.32;25.50;;;7.10;99.90;;;;;;5081535;28;20040;-66
2022/12/23 03:41:46;;;;;;;90.00;24.00;;;7.00;99.90;;;;;;5086965;28;20050;-65
2022/12/23 03:44:28;;;;;;;95.38;25.05;;;7.10;99.90;;;;;;5083396;28;20044;-66
2022/12/23 03:47:20;;;;;;;97.00;24.88;;;7.00;99.90;;;;;;5072725;28;20045;-66
2022/12/23 03:49:51;;;;;;;92.35;23.60;;;7.00;99.90;;;;;;5076502;28;20132;-66
2022/12/23 03:52:21;;;;;;;102.45;24.98;;;6.90;99.90;;;;;;5087098;28;20067;-67
2022/12/23 03:54:56;;;;;;;83.15;24.60;;;7.00;99.90;;;;;;5089321;28;20036;-66
2022/12/23 03:57:26;;;;;;;89.35;22.50;;;7.00;99.90;;;;;;5089239;28;20055;-66
2022/12/23 03:59:53;;;;;;;83.68;21.70;;;7.00;99.90;;;;;;5085576;28;20407;-67
2022/12/23 04:02:37;;;;;;;161.40;30.02;;;6.90;99.90;;;;;;5079912;28;20122;-66
2022/12/23 04:05:30;;;;;;;105.72;24.08;;;7.00;99.90;;;;;;5090044;28;20386;-67
2022/12/23 04:08:10;;;;;;;175.95;29.35;;;7.00;99.90;;;;;;5087950;28;20050;-66
2022/12/23 04:10:36;;;;;;;108.20;24.67;;;6.90;99.90;;;;;;5083092;28;20039;-65
2022/12/23 04:13:01;;;;;;;86.68;22.00;;;7.00;99.90;;;;;;5086087;28;20048;-67
2022/12/23 04:15:27;;;;;;;105.50;24.58;;;6.80;99.90;;;;;;5085966;28;20041;-65
2022/12/23 04:17:55;;;;;;;86.10;23.10;;;6.90;99.90;;;;;;5093095;28;20071;-65
2022/12/23 04:20:21;;;;;;;93.90;22.95;;;7.00;99.90;;;;;;5091023;28;20040;-66
2022/12/23 04:22:47;;;;;;;82.15;22.08;;;6.90;99.90;;;;;;5091586;28;20035;-66
2022/12/23 04:25:14;;;;;;;109.32;24.30;;;6.80;99.90;;;;;;5090794;28;20126;-65
2022/12/23 04:27:40;;;;;;;120.18;24.98;;;6.90;99.90;;;;;;5090696;28;20035;-67
2022/12/23 04:30:07;;;;;;;103.50;24.88;;;6.90;99.90;;;;;;5092133;28;20424;-66
2022/12/23 04:32:33;;;;;;;106.68;25.40;;;6.90;99.90;;;;;;5076506;28;20043;-66
2022/12/23 04:34:59;;;;;;;86.70;24.15;;;6.80;99.90;;;;;;5072973;28;20063;-66
2022/12/23 04:37:24;;;;;;;104.47;23.98;;;6.80;99.90;;;;;;5093994;28;20070;-66
2022/12/23 04:39:50;;;;;;;93.53;22.67;;;6.90;99.90;;;;;;5108847;28;20089;-65
2022/12/23 04:42:16;;;;;;;97.57;23.73;;;6.80;99.90;;;;;;5091546;28;20470;-66
2022/12/23 04:44:41;;;;;;;99.03;22.63;;;6.80;99.90;;;;;;5069784;28;20162;-68
2022/12/23 04:47:07;;;;;;;117.22;25.33;;;6.80;99.90;;;;;;5086227;28;20418;-68
2022/12/23 04:49:32;;;;;;;102.75;23.50;;;6.80;99.90;;;;;;5087622;28;20035;-66
2022/12/23 04:51:58;;;;;;;100.85;25.45;;;6.70;99.90;;;;;;5082163;28;20051;-65
2022/12/23 04:54:23;;;;;;;124.30;26.48;;;6.80;99.90;;;;;;5091134;28;20040;-66
2022/12/23 04:56:49;;;;;;;110.55;24.77;;;6.80;99.90;;;;;;5087890;28;20122;-66
2022/12/23 04:59:14;;;;;;;101.88;23.63;;;6.80;99.90;;;;;;5093960;28;20495;-66
2022/12/23 05:01:43;;;;;;;90.78;24.02;;;6.80;99.90;;;;;;5087219;28;20036;-65
2022/12/23 05:04:09;;;;;;;91.72;23.65;;;6.70;99.90;;;;;;5086098;28;20066;-66
2022/12/23 05:06:36;;;;;;;104.05;23.55;;;6.80;99.90;;;;;;5088923;28;20074;-66
2022/12/23 05:09:02;;;;;;;102.22;24.38;;;6.70;99.90;;;;;;5084120;28;20043;-65
2022/12/23 05:11:28;;;;;;;165.25;29.98;;;6.80;99.90;;;;;;5094354;28;20043;-65
2022/12/23 05:13:53;;;;;;;109.78;24.05;;;6.80;99.90;;;;;;5090510;28;20039;-67
2022/12/23 05:16:19;;;;;;;110.97;24.42;;;6.70;99.90;;;;;;5087421;28;20067;-67
2022/12/23 05:18:44;;;;;;;186.52;30.23;;;6.60;99.90;;;;;;5083300;28;20475;-66
2022/12/23 05:21:10;;;;;;;157.85;27.67;;;6.60;99.90;;;;;;5088171;28;20036;-65
2022/12/23 05:23:36;;;;;;;89.72;23.55;;;6.70;99.90;;;;;;5108011;28;20035;-68
2022/12/23 05:26:01;;;;;;;99.05;24.02;;;6.70;99.90;;;;;;5109361;28;20552;-67
2022/12/23 05:28:27;;;;;;;104.03;23.60;;;6.70;99.90;;;;;;5108179;28;20259;-67
2022/12/23 05:31:01;;;;;;;104.13;24.25;;;6.60;99.90;;;;;;5089170;28;20110;-66
2022/12/23 05:33:27;;;;;;;105.35;23.35;;;6.60;99.90;;;;;;5090608;28;20501;-65
2022/12/23 05:35:53;;;;;;;142.32;27.33;;;6.50;99.90;;;;;;5087577;28;20044;-65
2022/12/23 05:38:18;;;;;;;177.77;29.67;;;6.50;99.90;;;;;;5091269;28;20039;-66
2022/12/23 05:40:44;;;;;;;158.60;28.95;;;6.60;99.90;;;;;;5110835;28;20584;-66
2022/12/23 05:43:10;;;;;;;118.78;24.85;;;6.50;99.90;;;;;;5089687;28;20036;-66
2022/12/23 05:45:36;;;;;;;127.63;27.15;;;6.50;99.90;;;;;;5111445;28;20054;-65
2022/12/23 05:48:01;;;;;;;87.47;22.75;;;6.50;99.90;;;;;;5089255;28;20036;-67
2022/12/23 05:50:27;;;;;;;120.05;26.02;;;6.50;99.90;;;;;;5105882;28;20086;-67
2022/12/23 05:52:54;;;;;;;105.70;23.95;;;6.50;99.90;;;;;;5074552;28;20035;-66
2022/12/23 05:55:21;;;;;;;131.63;28.42;;;6.40;99.90;;;;;;5092917;28;20043;-66
2022/12/23 05:57:46;;;;;;;97.65;22.52;;;6.40;99.90;;;;;;5092009;28;20486;-65
2022/12/23 06:00:12;;;;;;;138.63;26.65;;;6.50;99.90;;;;;;5092488;28;20040;-66
2022/12/23 06:02:38;;;;;;;105.07;24.20;;;6.40;99.90;;;;;;5090577;28;20556;-66
2022/12/23 06:05:04;;;;;;;97.20;23.00;;;6.40;99.90;;;;;;5090361;28;20127;-65
2022/12/23 06:07:30;;;;;;;97.82;21.95;;;6.40;99.90;;;;;;5087142;28;20522;-65
2022/12/23 06:09:55;;;;;;;89.65;20.70;;;6.50;99.90;;;;;;5090338;28;20044;-65
2022/12/23 06:12:21;;;;;;;100.10;22.15;;;6.50;99.90;;;;;;5092547;28;20043;-66
2022/12/23 06:14:46;;;;;;;105.68;22.02;;;6.40;99.90;;;;;;5110466;28;20064;-65
2022/12/23 06:17:12;;;;;;;117.53;23.67;;;6.40;99.90;;;;;;5091475;28;20095;-67
2022/12/23 06:19:37;;;;;;;97.03;22.42;;;6.40;99.90;;;;;;5089831;28;20048;-66
2022/12/23 06:22:03;;;;;;;338.58;38.53;;;6.40;99.90;;;;;;5089082;28;20028;-67
2022/12/23 06:24:29;;;;;;;305.73;37.50;;;6.30;99.90;;;;;;5111632;28;20491;-65
2022/12/23 06:26:54;;;;;;;129.38;23.58;;;6.40;99.90;;;;;;5091176;28;20845;-66
2022/12/23 06:29:20;;;;;;;137.85;25.65;;;6.40;99.90;;;;;;5082765;28;20040;-65
2022/12/23 06:31:46;;;;;;;219.68;32.38;;;6.30;99.90;;;;;;5078470;28;20028;-65
2022/12/23 06:34:12;;;;;;;172.57;28.08;;;6.40;99.90;;;;;;5090570;28;20054;-65
2022/12/23 06:36:37;;;;;;;168.98;28.70;;;6.40;99.90;;;;;;5084394;28;20024;-66
2022/12/23 06:39:03;;;;;;;133.85;25.38;;;6.30;99.90;;;;;;5081953;28;20040;-66
2022/12/23 06:41:28;;;;;;;134.20;24.30;;;6.40;99.90;;;;;;5104648;28;20040;-65
2022/12/23 06:43:54;;;;;;;120.63;23.40;;;6.40;99.90;;;;;;5089016;28;20115;-65
2022/12/23 06:46:19;;;;;;;317.85;37.05;;;6.30;99.90;;;;;;5085582;28;20040;-66
2022/12/23 06:48:45;;;;;;;315.73;37.80;;;6.40;99.90;;;;;;5084823;28;20048;-65
2022/12/23 06:51:11;;;;;;;302.40;35.83;;;6.30;99.90;;;;;;5091474;28;20101;-64
2022/12/23 06:53:37;;;;;;;142.63;26.63;;;6.40;99.90;;;;;;5091858;28;20388;-67
2022/12/23 06:56:03;;;;;;;110.93;22.00;;;6.40;99.90;;;;;;5089938;28;20465;-65
2022/12/23 06:58:29;;;;;;;106.68;23.08;;;6.50;99.90;;;;;;5109817;28;20431;-65
2022/12/23 07:00:55;;;;;;;235.00;33.83;;;6.40;99.90;;;;;;5107384;28;20046;-65
2022/12/23 07:03:20;;;;;;;103.72;21.42;;;6.50;99.90;;;;;;5094299;28;20375;-66
2022/12/23 07:05:47;;;;;;;168.35;27.85;;;6.40;99.90;;;;;;5095483;28;20600;-65
2022/12/23 07:08:13;;;;;;;126.78;22.67;;;6.40;99.90;;;;;;5093831;28;20035;-65
2022/12/23 07:10:38;;;;;;;145.80;24.33;;;6.40;99.90;;;;;;5085428;28;20040;-67
2022/12/23 07:13:04;;;;;;;103.05;21.23;;;6.50;99.90;;;;;;5089842;28;20032;-66
2022/12/23 07:15:29;;;;;;;94.32;20.23;;;6.40;99.90;;;;;;5091055;28;20572;-65
2022/12/23 07:17:55;;;;;;;90.38;19.67;;;6.40;99.90;;;;;;5080219;28;20559;-65
2022/12/23 07:20:20;;;;;;;87.13;19.30;;;6.40;99.90;;;;;;5111427;28;20039;-66
2022/12/23 07:22:46;;;;;;;82.80;19.33;;;6.50;99.90;;;;;;5080155;28;20036;-66
2022/12/23 07:25:12;;;;;;;92.00;18.02;;;6.50;99.90;;;;;;5091382;28;20051;-65
2022/12/23 07:27:38;;;;;;;83.43;17.58;;;6.40;99.90;;;;;;5073322;28;20455;-67
2022/12/23 07:30:04;;;;;;;119.40;20.30;;;6.40;99.90;;;;;;5082649;28;20051;-66
2022/12/23 07:32:29;;;;;;;99.53;19.83;;;6.50;99.90;;;;;;5107064;28;20030;-65
2022/12/23 07:34:55;;;;;;;137.02;23.60;;;6.40;99.90;;;;;;5100211;28;20040;-66
2022/12/23 07:37:20;;;;;;;145.52;23.27;;;6.40;99.90;;;;;;5083978;28;20075;-66
2022/12/23 07:39:46;;;;;;;73.40;18.35;;;6.50;99.90;;;;;;5083472;28;20028;-65
2022/12/23 07:42:11;;;;;;;113.63;21.92;;;6.40;99.90;;;;;;5080730;28;20036;-65
2022/12/23 07:44:37;;;;;;;105.03;20.08;;;6.50;99.90;;;;;;5079892;28;20096;-64
2022/12/23 07:47:02;;;;;;;110.10;19.90;;;6.40;99.90;;;;;;5081810;28;20044;-66
2022/12/23 07:49:28;;;;;;;118.72;20.80;;;6.40;99.90;;;;;;5090220;28;20036;-66
2022/12/23 07:51:54;;;;;;;109.95;19.83;;;6.40;99.90;;;;;;5084759;28;20134;-65
2022/12/23 07:54:19;;;;;;;74.50;17.15;;;6.50;99.90;;;;;;5094993;28;20039;-65
2022/12/23 07:56:45;;;;;;;109.70;19.73;;;6.40;99.90;;;;;;5088140;28;20031;-65
2022/12/23 07:59:10;;;;;;;125.35;20.48;;;6.40;99.90;;;;;;5094947;28;20039;-65
2022/12/23 08:01:36;;;;;;;116.97;20.13;;;6.30;99.90;;;;;;5111839;28;20100;-66
2022/12/23 08:04:01;;;;;;;81.45;17.70;;;6.30;99.90;;;;;;5080037;28;20108;-65
2022/12/23 08:06:27;;;;;;;105.43;19.73;;;6.40;99.90;;;;;;5079106;28;20040;-65
2022/12/23 08:08:52;;;;;;;67.18;15.95;;;6.30;99.90;;;;;;5110531;28;20581;-65
2022/12/23 08:11:18;;;;;;;97.82;19.17;;;6.30;99.90;;;;;;5093371;28;20054;-65
2022/12/23 08:13:45;;;;;;;69.45;15.38;;;6.30;99.90;;;;;;5092874;28;20498;-65
2022/12/23 08:16:11;;;;;;;57.65;15.55;;;6.40;99.90;;;;;;5095344;28;20055;-65
2022/12/23 08:18:39;;;;;;;72.72;16.48;;;6.40;99.90;;;;;;5094004;28;20370;-66
2022/12/23 08:21:13;;;;;;;60.17;16.42;;;6.50;99.90;;;;;;5092595;28;20032;-66
2022/12/23 08:23:39;;;;;;;66.03;15.18;;;6.50;99.90;;;;;;5094367;28;20397;-66
2022/12/23 08:26:08;;;;;;;77.15;16.98;;;6.40;99.90;;;;;;5093482;28;20031;-65
2022/12/23 08:28:34;;;;;;;63.60;15.18;;;6.50;99.90;;;;;;5083977;28;20113;-66
2022/12/23 08:31:09;;;;;;;65.45;16.67;;;6.50;99.90;;;;;;5089678;28;20195;-65
2022/12/23 08:33:37;;;;;;;57.20;15.50;;;6.60;99.90;;;;;;5112176;28;20043;-65
2022/12/23 08:36:05;;;;;;;58.42;15.65;;;6.60;99.90;;;;;;5085630;28;20046;-66
2022/12/23 08:38:30;;;;;;;54.10;14.85;;;6.60;99.90;;;;;;5086160;28;20035;-66
2022/12/23 08:40:56;;;;;;;52.90;15.00;;;6.60;99.90;;;;;;5086657;28;20032;-64
2022/12/23 08:43:22;;;;;;;75.15;16.65;;;6.70;99.90;;;;;;5102603;28;20763;-65
2022/12/23 08:45:47;;;;;;;72.10;17.70;;;6.60;99.90;;;;;;5077449;28;20173;-64
2022/12/23 08:48:13;;;;;;;104.78;18.80;;;6.70;99.90;;;;;;5093033;28;20128;-64
2022/12/23 08:50:41;;;;;;;54.92;13.63;;;6.60;99.90;;;;;;5073903;28;20043;-65
2022/12/23 08:53:07;;;;;;;59.97;16.00;;;6.60;99.90;;;;;;5079357;28;20040;-65
2022/12/23 08:55:41;;;;;;;53.45;15.27;;;6.60;99.90;;;;;;5085711;28;20040;-65
2022/12/23 08:58:07;;;;;;;54.25;15.15;;;6.60;99.90;;;;;;5079630;28;20494;-65
2022/12/23 09:00:34;;;;;;;60.70;15.35;;;6.60;99.90;;;;;;5075997;28;20426;-65
2022/12/23 09:03:00;;;;;;;74.97;17.85;;;6.60;99.90;;;;;;5090182;28;20071;-66
2022/12/23 09:05:25;;;;;;;60.15;15.77;;;6.70;99.90;;;;;;5109553;28;20488;-66
2022/12/23 09:07:51;;;;;;;53.83;15.05;;;6.80;99.90;;;;;;5091070;28;20047;-65
2022/12/23 09:10:17;;;;;;;71.30;16.50;;;6.80;99.90;;;;;;5088702;28;20486;-65
2022/12/23 09:12:42;;;;;;;63.72;14.50;;;6.80;99.90;;;;;;5111494;28;20065;-65
2022/12/23 09:15:08;;;;;;;36.65;13.98;;;6.90;99.90;;;;;;5091345;28;20089;-65
2022/12/23 09:17:34;;;;;;;64.43;15.65;;;6.90;99.90;;;;;;5113036;28;20439;-65
2022/12/23 09:19:59;;;;;;;65.70;14.60;;;6.80;99.90;;;;;;5092364;28;20479;-67
2022/12/23 09:22:25;;;;;;;42.55;12.23;;;6.90;99.90;;;;;;5092698;28;20063;-65
2022/12/23 09:24:50;;;;;;;51.00;12.85;;;6.80;99.90;;;;;;5108741;28;20044;-65
2022/12/23 09:27:16;;;;;;;42.30;11.93;;;6.90;99.90;;;;;;5086085;28;20040;-65
2022/12/23 09:29:42;;;;;;;42.97;11.23;;;6.90;99.90;;;;;;5094164;28;20134;-65
2022/12/23 09:32:08;;;;;;;55.65;12.82;;;6.90;99.90;;;;;;5112445;28;20038;-65
2022/12/23 09:34:33;;;;;;;37.05;12.18;;;7.00;99.90;;;;;;5110826;28;20040;-65
2022/12/23 09:36:59;;;;;;;40.88;11.70;;;7.00;99.90;;;;;;5090523;28;20036;-64
2022/12/23 09:39:24;;;;;;;42.45;11.77;;;7.10;99.90;;;;;;5092897;28;20118;-64
2022/12/23 09:42:13;;;;;;;43.38;12.65;;;7.00;99.90;;;;;;5109682;28;20544;-64
2022/12/23 09:45:09;;;;;;;37.53;11.52;;;7.20;99.90;;;;;;5102941;28;20040;-65
2022/12/23 09:47:36;;;;;;;37.47;11.95;;;7.20;99.90;;;;;;5081826;28;20047;-64
2022/12/23 09:50:14;;;;;;;37.40;12.25;;;7.20;99.90;;;;;;5112938;28;20039;-66
2022/12/23 09:52:51;;;;;;;44.45;12.43;;;7.20;99.90;;;;;;5091724;28;20043;-66
2022/12/23 09:55:19;;;;;;;32.60;10.60;;;7.20;99.90;;;;;;5098361;28;20531;-65
2022/12/23 09:57:59;;;;;;;45.95;12.48;;;7.20;99.90;;;;;;5087349;28;20047;-65
2022/12/23 10:00:30;;;;;;;35.15;11.00;;;7.30;99.90;;;;;;5086308;28;20071;-65
2022/12/23 10:03:20;;;;;;;31.40;10.68;;;7.40;99.90;;;;;;5075740;28;20489;-66
2022/12/23 10:06:03;;;;;;;37.97;10.82;;;7.40;99.90;;;;;;5080339;28;20062;-65
2022/12/23 10:08:36;;;;;;;31.25;9.80;;;7.40;99.90;;;;;;5086470;28;20035;-67
2022/12/23 10:11:05;;;;;;;40.28;11.90;;;7.40;99.90;;;;;;5091627;28;20514;-66
2022/12/23 10:13:36;;;;;;;35.80;11.63;;;7.40;99.90;;;;;;5089864;28;20091;-66
2022/12/23 10:16:22;;;;;;;31.27;11.27;;;7.40;99.90;;;;;;5079618;28;20052;-66
2022/12/23 10:19:12;;;;;;;44.80;11.65;;;7.30;99.90;;;;;;5093593;28;20036;-65
2022/12/23 10:21:46;;;;;;;33.00;11.60;;;7.30;99.90;;;;;;5083376;28;20032;-64
2022/12/23 10:24:18;;;;;;;32.33;11.02;;;7.30;99.90;;;;;;5068072;28;20044;-65
2022/12/23 10:27:00;;;;;;;38.22;11.65;;;7.40;99.90;;;;;;5076994;28;20489;-65
2022/12/23 10:29:30;;;;;;;38.17;11.25;;;7.40;99.90;;;;;;5084818;28;20043;-66
2022/12/23 10:32:18;;;;;;;33.78;11.43;;;7.50;99.90;;;;;;5089770;28;20044;-65
2022/12/23 10:35:14;;;;;;;37.53;11.93;;;7.40;99.90;;;;;;5093014;28;20044;-65
2022/12/23 10:37:59;;;;;;;32.97;10.85;;;7.50;99.90;;;;;;5091618;28;20046;-65
2022/12/23 10:40:38;;;;;;;29.83;11.00;;;7.60;99.90;;;;;;5092676;28;20726;-65
2022/12/23 10:43:18;;;;;;;35.17;11.37;;;7.60;99.90;;;;;;5093077;28;20506;-65
2022/12/23 10:45:59;;;;;;;37.85;11.40;;;7.60;99.90;;;;;;5094483;28;20047;-65
2022/12/23 10:48:40;;;;;;;;;;;7.60;99.90;;;;;;5092681;28;20055;-65
2022/12/23 10:51:14;;;;;;;35.92;12.10;;;7.60;99.90;;;;;;5089362;28;19955;-66
2022/12/23 10:54:00;;;;;;;32.95;11.10;;;7.60;99.90;;;;;;5093428;28;20078;-65
2022/12/23 10:56:28;;;;;;;33.75;10.98;;;7.50;99.90;;;;;;5090758;28;20035;-66
2022/12/23 10:58:56;;;;;;;37.45;12.52;;;7.70;99.90;;;;;;5086529;28;20036;-65
2022/12/23 11:01:23;;;;;;;29.58;10.40;;;7.70;99.90;;;;;;5075163;28;20055;-66
2022/12/23 11:04:01;;;;;;;31.17;11.45;;;7.60;99.90;;;;;;5093369;28;20081;-65
2022/12/23 11:06:27;;;;;;;33.40;12.15;;;7.60;99.90;;;;;;5088429;28;20040;-65
2022/12/23 11:08:55;;;;;;;26.02;10.48;;;7.60;99.90;;;;;;5091060;28;20714;-65
2022/12/23 11:11:20;;;;;;;24.75;9.93;;;7.60;99.90;;;;;;5092501;28;20032;-65
2022/12/23 11:13:47;;;;;;;29.33;9.48;;;7.60;99.90;;;;;;5087985;28;20042;-65
2022/12/23 11:16:24;;;;;;;27.92;10.05;;;7.60;99.90;;;;;;5107387;28;20052;-66
2022/12/23 11:18:57;;;;;;;28.13;10.75;;;7.60;99.90;;;;;;5101487;28;20045;-65
2022/12/23 11:21:24;;;;;;;25.95;10.73;;;7.50;99.90;;;;;;5097869;28;20038;-66
2022/12/23 11:24:07;;;;;;;24.58;9.77;;;7.60;99.90;;;;;;5071323;28;20571;-65
2022/12/23 11:26:33;;;;;;;29.63;10.93;;;7.60;99.90;;;;;;5072640;28;20039;-64
2022/12/23 11:29:05;;;;;;;34.22;11.52;;;7.60;99.90;;;;;;5073638;28;20050;-65
2022/12/23 11:31:34;;;;;;;35.60;11.95;;;7.60;99.90;;;;;;5102280;28;20115;-65
2022/12/23 11:34:17;;;;;;;31.50;11.85;;;7.50;99.90;;;;;;5078495;28;20044;-64
2022/12/23 11:36:43;;;;;;;31.10;12.40;;;7.60;99.90;;;;;;5083143;28;20044;-65
2022/12/23 11:39:08;;;;;;;39.03;12.45;;;7.50;99.90;;;;;;5110207;28;20038;-65
2022/12/23 11:41:49;;;;;;;33.55;11.35;;;7.60;99.90;;;;;;5079457;28;20374;-65
2022/12/23 11:44:42;;;;;;;26.88;12.98;;;7.50;99.90;;;;;;5104170;28;20043;-65
2022/12/23 11:47:40;;;;;;;31.48;12.48;;;7.60;99.90;;;;;;5083487;28;20040;-64
2022/12/23 11:50:24;;;;;;;38.28;14.02;;;7.60;99.90;;;;;;5074247;28;20147;-65
2022/12/23 11:52:53;;;;;;;30.88;12.57;;;7.60;99.90;;;;;;5067430;28;20046;-66
2022/12/23 11:55:24;;;;;;;34.60;11.82;;;7.60;99.90;;;;;;5089954;28;20370;-64
2022/12/23 11:57:51;;;;;;;32.85;12.77;;;7.50;99.90;;;;;;5084734;28;20154;-64
2022/12/23 12:00:27;;;;;;;30.85;11.15;;;7.50;99.90;;;;;;5108493;28;20032;-66
2022/12/23 12:02:59;;;;;;;34.40;12.98;;;7.50;99.90;;;;;;5094582;28;20032;-64
2022/12/23 12:05:35;;;;;;;39.00;13.75;;;7.50;99.90;;;;;;5075585;28;20119;-65
2022/12/23 12:08:05;;;;;;;32.92;11.88;;;7.50;99.90;;;;;;5088561;28;20047;-66
2022/12/23 12:10:34;;;;;;;36.88;12.57;;;7.60;99.90;;;;;;5110146;28;20042;-65
2022/12/23 12:13:22;;;;;;;32.13;12.32;;;7.50;99.90;;;;;;5088858;28;20044;-65
2022/12/23 12:16:15;;;;;;;35.10;12.35;;;7.50;99.90;;;;;;5093202;28;20059;-64
2022/12/23 12:18:42;;;;;;;30.83;11.88;;;7.60;99.90;;;;;;5093066;28;20044;-65
2022/12/23 12:21:16;;;;;;;37.42;12.52;;;7.60;99.90;;;;;;5091925;28;20075;-65
2022/12/23 12:23:44;;;;;;;34.72;13.07;;;7.60;99.90;;;;;;5076062;28;20059;-65
2022/12/23 12:26:16;;;;;;;32.83;12.82;;;7.70;99.90;;;;;;5101029;28;20068;-65
2022/12/23 12:28:49;;;;;;;35.17;12.55;;;7.70;99.90;;;;;;5094856;28;20032;-65
2022/12/23 12:31:26;;;;;;;34.28;13.25;;;7.70;99.90;;;;;;5114374;28;20040;-65
2022/12/23 12:34:26;;;;;;;32.88;11.73;;;7.70;99.90;;;;;;5096029;28;20479;-65
2022/12/23 12:37:07;;;;;;;33.80;12.80;;;7.70;99.90;;;;;;5075854;28;20075;-65
2022/12/23 12:39:48;;;;;;;35.53;13.73;;;7.70;99.90;;;;;;5094286;28;20032;-65
2022/12/23 12:42:21;;;;;;;30.00;11.68;;;7.70;99.90;;;;;;5088744;28;20552;-64
2022/12/23 12:45:22;;;;;;;34.15;12.88;;;7.60;99.90;;;;;;5089163;28;20463;-65
2022/12/23 12:48:13;;;;;;;37.50;12.50;;;7.70;99.90;;;;;;5085306;28;20046;-65
2022/12/23 12:50:47;;;;;;;35.20;13.23;;;7.70;99.90;;;;;;5072447;28;20365;-66
2022/12/23 12:53:19;;;;;;;31.52;12.07;;;7.60;99.90;;;;;;5085199;28;20097;-65
2022/12/23 12:55:54;;;;;;;33.22;12.95;;;7.60;99.90;;;;;;5089895;28;20047;-65
2022/12/23 12:58:22;;;;;;;33.80;12.52;;;7.50;99.90;;;;;;5094877;28;20040;-66
2022/12/23 13:00:53;;;;;;;36.63;13.13;;;7.60;99.90;;;;;;5110564;28;20036;-65
2022/12/23 13:03:46;;;;;;;40.75;14.93;;;7.60;99.90;;;;;;5112999;28;20138;-65
2022/12/23 13:06:23;;;;;;;37.42;13.20;;;7.60;99.90;;;;;;5110234;28;20605;-65
2022/12/23 13:09:14;;;;;;;39.97;14.75;;;7.60;99.90;;;;;;5109231;28;20631;-66
2022/12/23 13:11:50;;;;;;;39.92;14.00;;;7.60;99.90;;;;;;5071826;28;20051;-64
2022/12/23 13:14:39;;;;;;;46.08;14.70;;;7.60;99.90;;;;;;5110507;28;20114;-65